Forside
METAR-TAF:

METAR-TAF

Lufthavne :

Flugplatz Hamburg-Finkenwerder

Finkenwerder, Tyskland

Breddekreds: 53-32N, længdekreds: 009-50E, højde: 5 m

Aktuelle vejr

Denne rapport blev lavet for 1 time og 0 minutter siden, kl. 20:20 UTC
Vind 12 kt fra nord med vindstød på up til 22 kt, varierende mellem nordvest og nordnordøst
Temperatur 7°C
Fugtighed 81%
Tryk 1006 hPa
Sigt 10 km eller mere

METAR: EDHI 192020Z AUTO 36012G22KT 320V020 9999 // BKN017/// OVC026/// 07/04 Q1006

Tid: 23:20 (21:20 UTC)

Vejrudsigter

Denne rapport blev lavet for 4 timer og 20 minutter siden, kl. 17:00 UTC
Foreløbig gælder fra 19 på 18 UTC til 19 på 21 UTC
Vind 15 kt fra nord med vindstød på up til 25 kt
Sigt 10 km eller mere
Brudte skyer i en højde af 1500 ft
Sandsynlighed 40% :
Midlertidig
fra 19 på 18 UTC til 19 på 21 UTC
Brudte skyer i en højde af 1400 ft
ændring
fra 19 på 18 UTC til 19 på 20 UTC
Vind 10 kt fra nord

TAF: EDHI 191700Z 1918/1921 35015G25KT 9999 BKN015 PROB40 TEMPO 1918/1921 BKN014 BECMG 1918/1920 35010KT

Vejrobservationer og prognoser fra mere end 4000 lufthavne (METAR og TAF).

De gule og røde prikker repræsenterer de meteorologiske stationer.

Flyt musen over at se navnet på stationen.

Så klik over at se vejr observationer og prognoser.

At skifte det kort: Klik på de grønne knapper med et sort kors for at zoome ind; på den grønne knap med en bindestreg for at zoome ud; eller på de grønne pile for tilstødende kort.


METAR-TAF: